sensor_id;sensor_type;location;lat;lon;timestamp;pressure;altitude;pressure_sealevel;temperature;humidity
23733;BME280;12047;53.450;-2.286;2023-01-29T00:03:19;102658.09;;;12.95;100.00
23733;BME280;12047;53.450;-2.286;2023-01-29T00:08:19;102643.38;;;13.15;100.00
23733;BME280;12047;53.450;-2.286;2023-01-29T00:13:20;102642.03;;;12.97;100.00
23733;BME280;12047;53.450;-2.286;2023-01-29T00:18:23;102631.59;;;12.93;100.00
23733;BME280;12047;53.450;-2.286;2023-01-29T00:23:25;102623.72;;;13.05;100.00
23733;BME280;12047;53.450;-2.286;2023-01-29T00:28:28;102612.56;;;12.62;100.00
23733;BME280;12047;53.450;-2.286;2023-01-29T00:33:29;102611.34;;;12.91;100.00
23733;BME280;12047;53.450;-2.286;2023-01-29T00:38:29;102613.28;;;12.11;100.00
23733;BME280;12047;53.450;-2.286;2023-01-29T00:43:30;102599.16;;;12.11;100.00
23733;BME280;12047;53.450;-2.286;2023-01-29T00:48:49;102589.19;;;11.87;100.00
23733;BME280;12047;53.450;-2.286;2023-01-29T00:53:50;102577.09;;;11.96;100.00
23733;BME280;12047;53.450;-2.286;2023-01-29T00:58:50;102577.81;;;11.71;100.00
23733;BME280;12047;53.450;-2.286;2023-01-29T01:03:51;102572.59;;;12.23;100.00
23733;BME280;12047;53.450;-2.286;2023-01-29T01:08:52;102569.50;;;12.17;100.00
23733;BME280;12047;53.450;-2.286;2023-01-29T01:14:11;102553.44;;;12.18;100.00
23733;BME280;12047;53.450;-2.286;2023-01-29T01:19:12;102556.09;;;12.18;100.00
23733;BME280;12047;53.450;-2.286;2023-01-29T01:24:13;102556.50;;;12.00;100.00
23733;BME280;12047;53.450;-2.286;2023-01-29T01:29:14;102552.19;;;12.24;100.00
23733;BME280;12047;53.450;-2.286;2023-01-29T01:34:15;102544.03;;;11.87;100.00
23733;BME280;12047;53.450;-2.286;2023-01-29T01:39:15;102547.13;;;11.94;100.00
23733;BME280;12047;53.450;-2.286;2023-01-29T01:49:56;102534.38;;;11.99;100.00
23733;BME280;12047;53.450;-2.286;2023-01-29T01:55:02;102540.78;;;12.09;100.00
23733;BME280;12047;53.450;-2.286;2023-01-29T02:00:07;102539.59;;;12.01;100.00
23733;BME280;12047;53.450;-2.286;2023-01-29T02:05:10;102529.00;;;12.26;100.00
23733;BME280;12047;53.450;-2.286;2023-01-29T02:10:37;102529.91;;;12.00;100.00
23733;BME280;12047;53.450;-2.286;2023-01-29T02:15:39;102528.13;;;11.73;100.00
23733;BME280;12047;53.450;-2.286;2023-01-29T02:21:18;102528.69;;;12.31;100.00
23733;BME280;12047;53.450;-2.286;2023-01-29T02:26:15;102515.47;;;12.16;100.00
23733;BME280;12047;53.450;-2.286;2023-01-29T02:31:31;102517.47;;;11.87;100.00
23733;BME280;12047;53.450;-2.286;2023-01-29T02:36:49;102510.75;;;12.34;100.00
23733;BME280;12047;53.450;-2.286;2023-01-29T02:42:14;102498.06;;;12.12;100.00
23733;BME280;12047;53.450;-2.286;2023-01-29T02:52:23;102485.50;;;12.02;100.00
23733;BME280;12047;53.450;-2.286;2023-01-29T02:57:29;102484.66;;;12.14;100.00
23733;BME280;12047;53.450;-2.286;2023-01-29T03:02:36;102491.53;;;11.91;100.00
23733;BME280;12047;53.450;-2.286;2023-01-29T03:07:47;102478.25;;;11.91;100.00
23733;BME280;12047;53.450;-2.286;2023-01-29T03:13:05;102463.94;;;11.67;100.00
23733;BME280;12047;53.450;-2.286;2023-01-29T03:18:11;102453.81;;;11.86;100.00
23733;BME280;12047;53.450;-2.286;2023-01-29T03:23:20;102477.84;;;12.48;100.00
23733;BME280;12047;53.450;-2.286;2023-01-29T03:28:27;102462.03;;;12.08;100.00
23733;BME280;12047;53.450;-2.286;2023-01-29T03:33:59;102460.72;;;11.88;100.00
23733;BME280;12047;53.450;-2.286;2023-01-29T03:39:00;102445.00;;;11.85;100.00
23733;BME280;12047;53.450;-2.286;2023-01-29T03:44:11;102443.41;;;11.96;100.00
23733;BME280;12047;53.450;-2.286;2023-01-29T03:55:11;102421.19;;;11.97;100.00
23733;BME280;12047;53.450;-2.286;2023-01-29T04:00:34;102411.16;;;11.75;100.00
23733;BME280;12047;53.450;-2.286;2023-01-29T04:05:51;102404.72;;;11.79;100.00
23733;BME280;12047;53.450;-2.286;2023-01-29T04:10:59;102401.00;;;11.94;100.00
23733;BME280;12047;53.450;-2.286;2023-01-29T04:16:05;102397.50;;;12.06;100.00
23733;BME280;12047;53.450;-2.286;2023-01-29T04:21:06;102388.78;;;12.17;100.00
23733;BME280;12047;53.450;-2.286;2023-01-29T04:31:35;102375.72;;;12.01;100.00
23733;BME280;12047;53.450;-2.286;2023-01-29T04:57:49;102361.91;;;11.83;100.00
23733;BME280;12047;53.450;-2.286;2023-01-29T05:02:52;102363.81;;;11.94;100.00
23733;BME280;12047;53.450;-2.286;2023-01-29T05:07:54;102356.13;;;12.15;100.00
23733;BME280;12047;53.450;-2.286;2023-01-29T05:13:01;102349.03;;;11.90;100.00
23733;BME280;12047;53.450;-2.286;2023-01-29T05:18:04;102345.81;;;12.36;100.00
23733;BME280;12047;53.450;-2.286;2023-01-29T05:23:19;102340.50;;;12.23;100.00
23733;BME280;12047;53.450;-2.286;2023-01-29T05:28:20;102336.38;;;12.19;100.00
23733;BME280;12047;53.450;-2.286;2023-01-29T05:33:27;102324.28;;;12.51;100.00
23733;BME280;12047;53.450;-2.286;2023-01-29T05:38:28;102317.81;;;12.43;100.00
23733;BME280;12047;53.450;-2.286;2023-01-29T05:43:28;102316.84;;;12.44;100.00
23733;BME280;12047;53.450;-2.286;2023-01-29T05:48:29;102311.63;;;12.55;100.00
23733;BME280;12047;53.450;-2.286;2023-01-29T05:53:33;102312.97;;;12.24;100.00
23733;BME280;12047;53.450;-2.286;2023-01-29T05:58:34;102307.53;;;12.25;100.00
23733;BME280;12047;53.450;-2.286;2023-01-29T06:03:34;102299.28;;;12.54;100.00
23733;BME280;12047;53.450;-2.286;2023-01-29T06:08:35;102297.22;;;12.34;100.00
23733;BME280;12047;53.450;-2.286;2023-01-29T06:13:36;102294.09;;;12.40;100.00
23733;BME280;12047;53.450;-2.286;2023-01-29T06:18:37;102307.69;;;12.48;100.00
23733;BME280;12047;53.450;-2.286;2023-01-29T06:23:39;102296.22;;;12.71;100.00
23733;BME280;12047;53.450;-2.286;2023-01-29T06:28:40;102298.84;;;12.23;100.00
23733;BME280;12047;53.450;-2.286;2023-01-29T06:33:41;102294.78;;;12.31;100.00
23733;BME280;12047;53.450;-2.286;2023-01-29T06:38:41;102298.03;;;11.47;100.00
23733;BME280;12047;53.450;-2.286;2023-01-29T06:43:45;102286.97;;;11.66;100.00
23733;BME280;12047;53.450;-2.286;2023-01-29T06:48:47;102290.69;;;12.01;100.00
23733;BME280;12047;53.450;-2.286;2023-01-29T06:53:48;102288.34;;;12.46;100.00
23733;BME280;12047;53.450;-2.286;2023-01-29T06:58:48;102292.91;;;12.44;100.00
23733;BME280;12047;53.450;-2.286;2023-01-29T07:03:49;102302.72;;;11.94;100.00
23733;BME280;12047;53.450;-2.286;2023-01-29T07:08:50;102308.94;;;12.18;100.00
23733;BME280;12047;53.450;-2.286;2023-01-29T07:13:51;102300.38;;;12.02;100.00
23733;BME280;12047;53.450;-2.286;2023-01-29T07:18:52;102290.75;;;12.25;100.00
23733;BME280;12047;53.450;-2.286;2023-01-29T07:23:53;102279.66;;;12.07;100.00
23733;BME280;12047;53.450;-2.286;2023-01-29T07:28:53;102279.84;;;11.66;100.00
23733;BME280;12047;53.450;-2.286;2023-01-29T07:33:54;102289.75;;;12.02;100.00
23733;BME280;12047;53.450;-2.286;2023-01-29T07:38:55;102289.94;;;11.74;100.00
23733;BME280;12047;53.450;-2.286;2023-01-29T07:43:55;102296.34;;;11.58;100.00
23733;BME280;12047;53.450;-2.286;2023-01-29T07:48:57;102289.72;;;11.64;100.00
23733;BME280;12047;53.450;-2.286;2023-01-29T07:53:57;102293.88;;;11.55;100.00
23733;BME280;12047;53.450;-2.286;2023-01-29T07:58:58;102300.41;;;11.77;100.00
23733;BME280;12047;53.450;-2.286;2023-01-29T08:03:59;102295.50;;;11.83;100.00
23733;BME280;12047;53.450;-2.286;2023-01-29T08:08:59;102287.44;;;11.85;100.00
23733;BME280;12047;53.450;-2.286;2023-01-29T08:14:00;102279.44;;;11.59;100.00
23733;BME280;12047;53.450;-2.286;2023-01-29T08:19:01;102285.06;;;11.93;100.00
23733;BME280;12047;53.450;-2.286;2023-01-29T08:24:02;102281.47;;;11.56;100.00
23733;BME280;12047;53.450;-2.286;2023-01-29T08:29:03;102268.28;;;11.42;100.00
23733;BME280;12047;53.450;-2.286;2023-01-29T08:34:03;102280.41;;;11.58;100.00
23733;BME280;12047;53.450;-2.286;2023-01-29T08:39:04;102279.22;;;11.75;100.00
23733;BME280;12047;53.450;-2.286;2023-01-29T08:44:04;102279.53;;;11.71;100.00
23733;BME280;12047;53.450;-2.286;2023-01-29T08:49:05;102278.56;;;12.10;100.00
23733;BME280;12047;53.450;-2.286;2023-01-29T08:54:07;102278.91;;;11.67;100.00
23733;BME280;12047;53.450;-2.286;2023-01-29T08:59:08;102277.56;;;11.87;100.00
23733;BME280;12047;53.450;-2.286;2023-01-29T09:04:09;102261.50;;;11.50;100.00
23733;BME280;12047;53.450;-2.286;2023-01-29T09:09:10;102249.81;;;11.53;100.00
23733;BME280;12047;53.450;-2.286;2023-01-29T09:14:13;102253.19;;;11.93;100.00
23733;BME280;12047;53.450;-2.286;2023-01-29T09:19:14;102242.50;;;12.18;100.00
23733;BME280;12047;53.450;-2.286;2023-01-29T09:24:14;102254.50;;;12.72;100.00
23733;BME280;12047;53.450;-2.286;2023-01-29T09:29:15;102240.06;;;11.79;100.00
23733;BME280;12047;53.450;-2.286;2023-01-29T09:34:16;102241.75;;;11.80;100.00
23733;BME280;12047;53.450;-2.286;2023-01-29T09:39:16;102231.56;;;11.48;100.00
23733;BME280;12047;53.450;-2.286;2023-01-29T09:44:32;102240.97;;;11.90;100.00
23733;BME280;12047;53.450;-2.286;2023-01-29T09:49:45;102234.06;;;12.01;100.00
23733;BME280;12047;53.450;-2.286;2023-01-29T09:59:59;102244.16;;;12.32;100.00
23733;BME280;12047;53.450;-2.286;2023-01-29T10:10:27;102239.75;;;12.44;100.00
23733;BME280;12047;53.450;-2.286;2023-01-29T10:16:16;102227.25;;;12.57;100.00
23733;BME280;12047;53.450;-2.286;2023-01-29T10:26:51;102231.50;;;12.94;100.00
23733;BME280;12047;53.450;-2.286;2023-01-29T10:31:55;102226.75;;;12.28;100.00
23733;BME280;12047;53.450;-2.286;2023-01-29T10:37:42;102210.91;;;12.26;100.00
23733;BME280;12047;53.450;-2.286;2023-01-29T10:42:48;102208.13;;;11.91;100.00
23733;BME280;12047;53.450;-2.286;2023-01-29T10:53:15;102200.81;;;12.43;100.00
23733;BME280;12047;53.450;-2.286;2023-01-29T11:03:38;102202.22;;;11.75;100.00
23733;BME280;12047;53.450;-2.286;2023-01-29T11:08:53;102201.13;;;11.90;100.00
23733;BME280;12047;53.450;-2.286;2023-01-29T11:14:03;102197.97;;;12.81;100.00
23733;BME280;12047;53.450;-2.286;2023-01-29T11:19:06;102182.81;;;12.11;100.00
23733;BME280;12047;53.450;-2.286;2023-01-29T11:24:11;102175.59;;;12.48;100.00
23733;BME280;12047;53.450;-2.286;2023-01-29T11:35:04;102166.59;;;12.38;100.00
23733;BME280;12047;53.450;-2.286;2023-01-29T11:40:34;102155.81;;;12.99;100.00
23733;BME280;12047;53.450;-2.286;2023-01-29T11:45:38;102147.19;;;12.95;100.00
23733;BME280;12047;53.450;-2.286;2023-01-29T11:50:40;102133.75;;;12.74;100.00
23733;BME280;12047;53.450;-2.286;2023-01-29T11:55:44;102123.09;;;12.74;100.00
23733;BME280;12047;53.450;-2.286;2023-01-29T12:00:51;102114.97;;;12.53;100.00
23733;BME280;12047;53.450;-2.286;2023-01-29T12:05:58;102113.09;;;12.43;100.00
23733;BME280;12047;53.450;-2.286;2023-01-29T12:11:22;102103.81;;;12.48;100.00
23733;BME280;12047;53.450;-2.286;2023-01-29T12:16:49;102092.50;;;11.99;100.00
23733;BME280;12047;53.450;-2.286;2023-01-29T12:21:57;102087.91;;;12.24;100.00
23733;BME280;12047;53.450;-2.286;2023-01-29T12:32:42;102072.41;;;12.07;100.00
23733;BME280;12047;53.450;-2.286;2023-01-29T12:43:04;102057.56;;;12.16;100.00
23733;BME280;12047;53.450;-2.286;2023-01-29T12:48:40;102047.47;;;11.97;100.00
23733;BME280;12047;53.450;-2.286;2023-01-29T12:54:13;102037.63;;;12.56;100.00
23733;BME280;12047;53.450;-2.286;2023-01-29T13:00:00;102014.19;;;12.62;100.00
23733;BME280;12047;53.450;-2.286;2023-01-29T13:10:29;101998.19;;;12.95;100.00
23733;BME280;12047;53.450;-2.286;2023-01-29T13:15:35;101981.41;;;13.17;100.00
23733;BME280;12047;53.450;-2.286;2023-01-29T13:20:45;101955.25;;;13.33;100.00
23733;BME280;12047;53.450;-2.286;2023-01-29T13:25:54;101951.16;;;13.18;100.00
23733;BME280;12047;53.450;-2.286;2023-01-29T13:31:17;101947.13;;;13.12;100.00
23733;BME280;12047;53.450;-2.286;2023-01-29T13:36:31;101938.66;;;13.61;100.00
23733;BME280;12047;53.450;-2.286;2023-01-29T13:41:40;101937.22;;;13.14;100.00
23733;BME280;12047;53.450;-2.286;2023-01-29T13:46:53;101919.78;;;13.33;100.00
23733;BME280;12047;53.450;-2.286;2023-01-29T13:51:56;101908.22;;;13.43;100.00
23733;BME280;12047;53.450;-2.286;2023-01-29T13:57:01;101896.56;;;13.76;100.00
23733;BME280;12047;53.450;-2.286;2023-01-29T14:07:51;101887.19;;;13.40;100.00
23733;BME280;12047;53.450;-2.286;2023-01-29T14:18:21;101859.09;;;14.19;100.00
23733;BME280;12047;53.450;-2.286;2023-01-29T14:45:34;101829.97;;;14.37;100.00
23733;BME280;12047;53.450;-2.286;2023-01-29T14:50:50;101814.44;;;13.81;100.00
23733;BME280;12047;53.450;-2.286;2023-01-29T14:56:00;101797.75;;;14.50;100.00
23733;BME280;12047;53.450;-2.286;2023-01-29T15:01:05;101777.28;;;14.10;100.00
23733;BME280;12047;53.450;-2.286;2023-01-29T15:06:09;101774.94;;;14.26;100.00
23733;BME280;12047;53.450;-2.286;2023-01-29T15:11:24;101769.09;;;14.42;100.00
23733;BME280;12047;53.450;-2.286;2023-01-29T15:16:50;101753.56;;;14.17;100.00
23733;BME280;12047;53.450;-2.286;2023-01-29T15:27:18;101760.72;;;15.24;100.00
23733;BME280;12047;53.450;-2.286;2023-01-29T15:32:25;101762.00;;;15.01;100.00
23733;BME280;12047;53.450;-2.286;2023-01-29T15:37:34;101747.38;;;14.56;100.00
23733;BME280;12047;53.450;-2.286;2023-01-29T15:42:46;101743.31;;;15.01;100.00
23733;BME280;12047;53.450;-2.286;2023-01-29T15:47:48;101724.50;;;14.73;100.00
23733;BME280;12047;53.450;-2.286;2023-01-29T15:52:55;101718.81;;;14.38;100.00
23733;BME280;12047;53.450;-2.286;2023-01-29T15:58:15;101707.16;;;14.19;100.00
23733;BME280;12047;53.450;-2.286;2023-01-29T16:03:20;101701.47;;;14.72;100.00
23733;BME280;12047;53.450;-2.286;2023-01-29T16:08:24;101687.44;;;14.80;100.00
23733;BME280;12047;53.450;-2.286;2023-01-29T16:13:36;101723.34;;;14.85;100.00
23733;BME280;12047;53.450;-2.286;2023-01-29T16:18:42;101736.84;;;14.93;100.00
23733;BME280;12047;53.450;-2.286;2023-01-29T16:23:48;101735.16;;;14.92;100.00
23733;BME280;12047;53.450;-2.286;2023-01-29T16:28:49;101735.84;;;14.46;100.00
23733;BME280;12047;53.450;-2.286;2023-01-29T16:33:52;101731.94;;;14.79;100.00
23733;BME280;12047;53.450;-2.286;2023-01-29T16:38:59;101703.78;;;14.37;100.00
23733;BME280;12047;53.450;-2.286;2023-01-29T16:54:28;101743.44;;;14.01;100.00
23733;BME280;12047;53.450;-2.286;2023-01-29T16:59:35;101719.72;;;13.98;100.00
23733;BME280;12047;53.450;-2.286;2023-01-29T17:04:40;101725.91;;;13.68;100.00
23733;BME280;12047;53.450;-2.286;2023-01-29T17:27:57;101716.28;;;13.05;100.00
23733;BME280;12047;53.450;-2.286;2023-01-29T17:33:16;101734.81;;;13.27;100.00
23733;BME280;12047;53.450;-2.286;2023-01-29T17:38:26;101725.69;;;13.09;100.00
23733;BME280;12047;53.450;-2.286;2023-01-29T17:43:33;101715.41;;;12.83;100.00
23733;BME280;12047;53.450;-2.286;2023-01-29T17:49:00;101709.06;;;13.37;100.00
23733;BME280;12047;53.450;-2.286;2023-01-29T17:54:21;101688.78;;;13.36;100.00
23733;BME280;12047;53.450;-2.286;2023-01-29T17:59:29;101678.53;;;13.41;100.00
23733;BME280;12047;53.450;-2.286;2023-01-29T18:04:38;101673.88;;;12.92;100.00
23733;BME280;12047;53.450;-2.286;2023-01-29T18:09:42;101664.81;;;13.36;100.00
23733;BME280;12047;53.450;-2.286;2023-01-29T18:14:43;101658.63;;;13.15;100.00
23733;BME280;12047;53.450;-2.286;2023-01-29T18:19:44;101649.81;;;13.35;100.00
23733;BME280;12047;53.450;-2.286;2023-01-29T18:24:47;101634.25;;;12.68;100.00
23733;BME280;12047;53.450;-2.286;2023-01-29T18:29:51;101628.88;;;12.79;100.00
23733;BME280;12047;53.450;-2.286;2023-01-29T18:35:02;101618.91;;;13.53;100.00
23733;BME280;12047;53.450;-2.286;2023-01-29T18:40:11;101598.88;;;12.98;100.00
23733;BME280;12047;53.450;-2.286;2023-01-29T18:45:13;101590.69;;;13.11;100.00
23733;BME280;12047;53.450;-2.286;2023-01-29T18:50:14;101589.44;;;13.15;100.00
23733;BME280;12047;53.450;-2.286;2023-01-29T18:55:15;101578.34;;;13.31;100.00
23733;BME280;12047;53.450;-2.286;2023-01-29T19:00:17;101582.56;;;13.33;100.00
23733;BME280;12047;53.450;-2.286;2023-01-29T19:05:17;101576.03;;;12.95;100.00
23733;BME280;12047;53.450;-2.286;2023-01-29T19:10:22;101580.56;;;12.74;100.00
23733;BME280;12047;53.450;-2.286;2023-01-29T19:15:22;101596.00;;;13.32;100.00
23733;BME280;12047;53.450;-2.286;2023-01-29T19:20:23;101599.09;;;12.85;100.00
23733;BME280;12047;53.450;-2.286;2023-01-29T19:25:24;101607.16;;;13.56;100.00
23733;BME280;12047;53.450;-2.286;2023-01-29T19:30:25;101623.19;;;13.35;100.00
23733;BME280;12047;53.450;-2.286;2023-01-29T19:35:26;101618.22;;;13.21;100.00
23733;BME280;12047;53.450;-2.286;2023-01-29T19:40:27;101601.44;;;13.60;100.00
23733;BME280;12047;53.450;-2.286;2023-01-29T19:45:30;101587.16;;;12.80;100.00
23733;BME280;12047;53.450;-2.286;2023-01-29T19:50:31;101563.97;;;12.91;100.00
23733;BME280;12047;53.450;-2.286;2023-01-29T19:55:31;101561.25;;;13.12;100.00
23733;BME280;12047;53.450;-2.286;2023-01-29T20:00:32;101540.81;;;13.34;100.00
23733;BME280;12047;53.450;-2.286;2023-01-29T20:05:34;101537.63;;;13.09;100.00
23733;BME280;12047;53.450;-2.286;2023-01-29T20:10:36;101517.06;;;12.90;100.00
23733;BME280;12047;53.450;-2.286;2023-01-29T20:15:41;101528.75;;;13.30;100.00
23733;BME280;12047;53.450;-2.286;2023-01-29T20:20:47;101540.28;;;12.88;100.00
23733;BME280;12047;53.450;-2.286;2023-01-29T20:25:58;101529.63;;;13.49;100.00
23733;BME280;12047;53.450;-2.286;2023-01-29T20:31:06;101513.94;;;13.66;100.00
23733;BME280;12047;53.450;-2.286;2023-01-29T20:42:56;101522.78;;;13.56;100.00
23733;BME280;12047;53.450;-2.286;2023-01-29T20:48:00;101533.84;;;13.61;100.00
23733;BME280;12047;53.450;-2.286;2023-01-29T20:59:11;101538.78;;;14.14;100.00
23733;BME280;12047;53.450;-2.286;2023-01-29T21:04:25;101536.69;;;13.79;100.00
23733;BME280;12047;53.450;-2.286;2023-01-29T21:09:26;101550.16;;;14.07;100.00
23733;BME280;12047;53.450;-2.286;2023-01-29T21:14:30;101555.63;;;14.05;100.00
23733;BME280;12047;53.450;-2.286;2023-01-29T21:19:39;101550.88;;;14.28;100.00
23733;BME280;12047;53.450;-2.286;2023-01-29T21:25:03;101548.88;;;14.59;100.00
23733;BME280;12047;53.450;-2.286;2023-01-29T21:30:15;101551.84;;;14.08;100.00
23733;BME280;12047;53.450;-2.286;2023-01-29T21:35:17;101550.72;;;14.20;100.00
23733;BME280;12047;53.450;-2.286;2023-01-29T21:40:17;101544.97;;;14.24;100.00
23733;BME280;12047;53.450;-2.286;2023-01-29T21:45:42;101552.38;;;13.92;100.00
23733;BME280;12047;53.450;-2.286;2023-01-29T21:50:44;101543.97;;;13.87;100.00
23733;BME280;12047;53.450;-2.286;2023-01-29T21:55:50;101549.06;;;14.09;100.00
23733;BME280;12047;53.450;-2.286;2023-01-29T22:00:57;101535.84;;;14.17;100.00
23733;BME280;12047;53.450;-2.286;2023-01-29T22:06:07;101538.22;;;14.20;100.00
23733;BME280;12047;53.450;-2.286;2023-01-29T22:11:08;101544.56;;;14.29;100.00
23733;BME280;12047;53.450;-2.286;2023-01-29T22:16:09;101553.25;;;14.21;100.00
23733;BME280;12047;53.450;-2.286;2023-01-29T22:21:10;101570.06;;;14.60;100.00
23733;BME280;12047;53.450;-2.286;2023-01-29T22:26:26;101582.00;;;14.08;100.00
23733;BME280;12047;53.450;-2.286;2023-01-29T22:31:37;101580.38;;;13.57;100.00
23733;BME280;12047;53.450;-2.286;2023-01-29T22:36:39;101616.50;;;13.50;100.00
23733;BME280;12047;53.450;-2.286;2023-01-29T22:41:42;101609.69;;;13.57;100.00
23733;BME280;12047;53.450;-2.286;2023-01-29T22:46:43;101580.94;;;13.61;100.00
23733;BME280;12047;53.450;-2.286;2023-01-29T22:51:43;101593.94;;;13.45;100.00
23733;BME280;12047;53.450;-2.286;2023-01-29T22:56:44;101609.19;;;13.33;100.00
23733;BME280;12047;53.450;-2.286;2023-01-29T23:01:45;101608.28;;;13.23;100.00
23733;BME280;12047;53.450;-2.286;2023-01-29T23:06:45;101608.06;;;13.36;100.00
23733;BME280;12047;53.450;-2.286;2023-01-29T23:11:46;101614.91;;;13.38;100.00
23733;BME280;12047;53.450;-2.286;2023-01-29T23:16:47;101628.84;;;13.21;100.00
23733;BME280;12047;53.450;-2.286;2023-01-29T23:21:47;101618.94;;;13.02;100.00
23733;BME280;12047;53.450;-2.286;2023-01-29T23:26:48;101632.41;;;13.31;100.00
23733;BME280;12047;53.450;-2.286;2023-01-29T23:32:09;101626.91;;;13.53;100.00
23733;BME280;12047;53.450;-2.286;2023-01-29T23:37:10;101634.38;;;12.87;100.00
23733;BME280;12047;53.450;-2.286;2023-01-29T23:42:11;101651.44;;;13.06;100.00
23733;BME280;12047;53.450;-2.286;2023-01-29T23:47:12;101643.53;;;12.74;100.00
23733;BME280;12047;53.450;-2.286;2023-01-29T23:52:12;101634.19;;;12.79;100.00
23733;BME280;12047;53.450;-2.286;2023-01-29T23:57:16;101621.53;;;12.51;100.00
